createdAt,value
2023-07-29T11:31:52.266Z,5.65
2023-07-29T11:33:29.453Z,5.43
2023-07-29T11:35:15.887Z,8.13
2023-07-29T11:36:47.492Z,5.90
2023-07-29T11:38:20.527Z,8.25
2023-07-29T11:39:52.290Z,4.80
2023-07-29T11:41:23.888Z,3.58
2023-07-29T11:42:58.310Z,4.50
2023-07-29T11:44:29.869Z,5.22
2023-07-29T11:46:02.247Z,4.07
2023-07-29T11:47:37.996Z,4.50
2023-07-29T11:49:09.684Z,4.80
2023-07-29T11:50:41.587Z,4.53
2023-07-29T11:52:13.656Z,3.60
2023-07-29T11:53:46.019Z,6.28
2023-07-29T11:55:17.713Z,4.15
2023-07-29T11:56:49.384Z,4.70
2023-07-29T11:58:22.411Z,4.28
2023-07-29T11:59:54.273Z,6.05
2023-07-29T12:01:26.031Z,5.60
2023-07-29T12:03:01.256Z,4.55
2023-07-29T12:04:34.473Z,5.88
2023-07-29T12:06:06.142Z,3.90
2023-07-29T12:07:40.551Z,4.60
2023-07-29T12:09:14.444Z,4.80
2023-07-29T12:10:46.353Z,6.50
2023-07-29T12:12:18.322Z,4.22
2023-07-29T12:13:50.083Z,5.55
2023-07-29T12:15:29.425Z,5.70
2023-07-29T12:17:05.323Z,4.38
2023-07-29T12:18:37.753Z,5.07
2023-07-29T12:20:11.984Z,4.38
2023-07-29T12:21:43.967Z,3.72
2023-07-29T12:23:17.955Z,4.50
2023-07-29T12:24:53.210Z,5.05
2023-07-29T12:26:32.774Z,4.70
2023-07-29T12:28:07.189Z,3.72
2023-07-29T12:29:44.705Z,4.93
2023-07-29T12:31:16.518Z,5.85
2023-07-29T12:32:49.346Z,5.38
2023-07-29T12:34:26.101Z,5.80
2023-07-29T12:36:00.414Z,5.18
2023-07-29T12:37:35.090Z,4.55
2023-07-29T12:39:06.721Z,5.70
2023-07-29T12:40:40.977Z,7.30
2023-07-29T12:42:12.926Z,4.20
2023-07-29T12:43:44.608Z,5.20
2023-07-29T12:45:17.508Z,4.68
2023-07-29T12:46:49.242Z,5.18
2023-07-29T12:48:21.099Z,4.50
2023-07-29T12:49:54.089Z,5.75
2023-07-29T12:51:25.642Z,5.45
2023-07-29T12:52:59.626Z,5.22
2023-07-29T12:54:31.247Z,6.22
2023-07-29T12:56:07.158Z,5.43
2023-07-29T12:57:41.536Z,4.78
2023-07-29T12:59:13.290Z,5.32
2023-07-29T13:00:47.296Z,4.50
2023-07-29T13:02:21.808Z,5.60
2023-07-29T13:03:56.856Z,7.13
2023-07-29T13:05:28.526Z,3.92
2023-07-29T13:07:00.741Z,5.28
2023-07-29T13:08:32.481Z,6.13
2023-07-29T13:10:04.685Z,6.60
2023-07-29T13:11:36.491Z,6.50
2023-07-29T13:13:08.244Z,4.47
2023-07-29T13:14:39.888Z,4.03
2023-07-29T13:16:11.635Z,5.25
2023-07-29T13:17:43.340Z,6.25
2023-07-29T13:19:15.168Z,6.88
2023-07-29T13:20:46.816Z,5.50
2023-07-29T13:22:19.053Z,3.95
2023-07-29T13:23:50.944Z,4.55
2023-07-29T13:25:22.624Z,6.38
2023-07-29T13:26:54.270Z,5.70
2023-07-29T13:28:25.883Z,5.90
2023-07-29T13:29:57.565Z,6.65
2023-07-29T13:31:29.249Z,5.22
2023-07-29T13:33:01.121Z,3.95
2023-07-29T13:34:35.694Z,5.97
2023-07-29T13:36:09.334Z,4.63
2023-07-29T13:37:40.989Z,4.72
2023-07-29T13:39:12.576Z,5.53
2023-07-29T13:40:44.276Z,6.20
2023-07-29T13:42:15.874Z,5.30
2023-07-29T13:43:47.503Z,3.95
2023-07-29T13:45:20.099Z,4.30
2023-07-29T13:46:51.746Z,5.28
2023-07-29T13:48:23.492Z,4.40
2023-07-29T13:49:55.149Z,4.80
2023-07-29T13:51:26.744Z,5.82
2023-07-29T13:52:58.402Z,4.38
2023-07-29T13:54:30.147Z,4.65
2023-07-29T13:56:01.879Z,3.35
2023-07-29T13:57:33.670Z,4.22
2023-07-29T13:59:05.375Z,3.67
2023-07-29T14:00:37.017Z,4.35
2023-07-29T14:02:08.907Z,4.97
2023-07-29T14:03:40.519Z,5.60
2023-07-29T14:05:12.999Z,8.05
2023-07-29T14:06:47.154Z,4.90
2023-07-29T14:08:20.572Z,4.65
2023-07-29T14:09:52.346Z,4.30
2023-07-29T14:11:24.271Z,4.15
2023-07-29T14:12:55.860Z,3.97
2023-07-29T14:14:27.823Z,3.65
2023-07-29T14:16:02.903Z,7.60
2023-07-29T14:17:34.475Z,3.85
2023-07-29T14:19:06.121Z,3.95
2023-07-29T14:20:37.837Z,5.30
2023-07-29T14:22:09.463Z,4.85
2023-07-29T14:23:41.065Z,5.22
2023-07-29T14:25:12.692Z,5.05
2023-07-29T14:26:44.325Z,5.22
2023-07-29T14:28:16.040Z,5.30
2023-07-29T14:29:47.821Z,4.45
2023-07-29T14:31:19.841Z,4.93
2023-07-29T14:32:51.566Z,5.85
2023-07-29T14:34:23.206Z,5.93
2023-07-29T14:35:55.131Z,3.55
2023-07-29T14:37:26.899Z,4.82
2023-07-29T14:38:58.534Z,5.90
2023-07-29T14:40:30.168Z,5.28
2023-07-29T14:42:01.806Z,6.18
2023-07-29T14:43:33.533Z,4.18
2023-07-29T14:45:05.883Z,4.68
2023-07-29T14:46:37.789Z,4.57
2023-07-29T14:48:09.705Z,4.32
2023-07-29T14:49:41.447Z,4.50
2023-07-29T14:51:13.054Z,5.43
2023-07-29T14:52:44.637Z,4.15
2023-07-29T14:54:16.516Z,4.78
2023-07-29T14:55:48.152Z,5.45
2023-07-29T14:57:19.715Z,5.57
2023-07-29T14:58:51.850Z,4.70
2023-07-29T15:00:23.422Z,4.32
2023-07-29T15:01:55.004Z,5.45
2023-07-29T15:03:26.705Z,5.22
2023-07-29T15:04:58.468Z,3.47
2023-07-29T15:06:30.086Z,5.43
2023-07-29T15:08:01.762Z,5.75
2023-07-29T15:09:33.342Z,5.63
2023-07-29T15:11:04.954Z,5.85
2023-07-29T15:12:37.200Z,5.70
2023-07-29T15:14:08.941Z,6.22
2023-07-29T15:15:44.480Z,5.47
2023-07-29T15:18:47.638Z,4.53
2023-07-29T15:20:19.275Z,7.15
2023-07-29T15:21:50.867Z,5.50
2023-07-29T15:23:22.472Z,4.53
2023-07-29T15:24:54.066Z,6.07
2023-07-29T15:26:25.639Z,4.93
2023-07-29T15:27:59.181Z,4.60
2023-07-29T15:29:30.951Z,6.18
2023-07-29T15:31:02.818Z,5.53
2023-07-29T15:32:34.606Z,5.15
2023-07-29T15:34:06.782Z,7.30
2023-07-29T15:35:42.265Z,5.75
2023-07-29T15:37:13.873Z,6.75
2023-07-29T15:38:45.559Z,4.50
2023-07-29T15:40:18.094Z,4.85
2023-07-29T15:41:49.764Z,4.47
2023-07-29T15:43:21.355Z,5.55
2023-07-29T15:44:52.950Z,4.38
2023-07-29T15:46:24.699Z,4.07
2023-07-29T15:47:56.314Z,5.57
2023-07-29T15:49:27.946Z,4.55
2023-07-29T15:50:59.518Z,4.85
2023-07-29T15:52:31.125Z,4.90
2023-07-29T15:54:02.971Z,4.53
2023-07-29T15:55:34.643Z,5.18
2023-07-29T15:57:06.714Z,5.43
2023-07-29T15:58:39.512Z,5.10
2023-07-29T16:00:11.866Z,4.53
2023-07-29T16:01:43.529Z,5.88
2023-07-29T16:03:15.227Z,4.75
2023-07-29T16:04:47.012Z,5.90
2023-07-29T16:06:18.531Z,4.25
2023-07-29T16:07:50.584Z,4.72
2023-07-29T16:09:22.462Z,5.18
2023-07-29T16:10:54.107Z,5.93
2023-07-29T16:12:25.732Z,5.68
2023-07-29T16:13:57.372Z,4.95
2023-07-29T16:15:29.211Z,4.35
2023-07-29T16:17:00.799Z,5.07
2023-07-29T16:18:32.593Z,4.72
2023-07-29T16:20:05.109Z,4.82
2023-07-29T16:21:37.214Z,4.45
2023-07-29T16:23:10.224Z,5.07
2023-07-29T16:24:41.908Z,5.85
2023-07-29T16:26:13.915Z,5.60
2023-07-29T16:27:45.456Z,4.55
2023-07-29T16:29:17.071Z,4.75
2023-07-29T16:30:48.692Z,4.97
2023-07-29T16:32:20.410Z,8.35
2023-07-29T16:33:52.130Z,5.75
2023-07-29T16:35:23.781Z,5.82
2023-07-29T16:36:55.360Z,7.10
2023-07-29T16:38:27.954Z,5.70
2023-07-29T16:40:00.198Z,6.55
2023-07-29T16:43:06.378Z,5.30
2023-07-29T16:44:38.002Z,4.68
2023-07-29T16:46:09.762Z,5.53
2023-07-29T16:47:41.563Z,5.90
2023-07-29T16:49:21.282Z,5.07
2023-07-29T16:50:53.981Z,5.18
2023-07-29T16:52:25.585Z,7.82
2023-07-29T16:53:57.373Z,5.22
2023-07-29T16:55:28.936Z,5.63
2023-07-29T16:57:00.538Z,5.63
2023-07-29T16:58:32.194Z,4.82
2023-07-29T17:00:04.331Z,6.90
2023-07-29T17:01:36.136Z,6.22
2023-07-29T17:03:07.923Z,5.75
2023-07-29T17:04:39.809Z,6.75
2023-07-29T17:06:11.533Z,8.50
2023-07-29T17:07:43.225Z,9.30
2023-07-29T17:09:14.840Z,9.43
2023-07-29T17:10:46.565Z,13.77
2023-07-29T17:12:18.151Z,7.57
2023-07-29T17:13:50.209Z,9.38
2023-07-29T17:15:22.352Z,10.80
2023-07-29T17:16:55.194Z,12.95
2023-07-29T17:18:27.589Z,17.95
2023-07-29T17:20:01.877Z,8.18
2023-07-29T17:21:33.582Z,9.93
2023-07-29T17:23:05.302Z,9.27
2023-07-29T17:24:37.174Z,14.43
2023-07-29T17:26:18.487Z,10.13
2023-07-29T17:27:51.840Z,13.75
2023-07-29T17:29:27.194Z,10.15
2023-07-29T17:31:03.313Z,14.35
2023-07-29T17:32:35.284Z,10.43
2023-07-29T17:34:07.080Z,8.82
2023-07-29T17:35:38.711Z,10.38
2023-07-29T17:37:10.422Z,9.82
2023-07-29T17:38:42.328Z,10.35
2023-07-29T17:40:14.242Z,10.15
2023-07-29T17:41:45.964Z,9.05
2023-07-29T17:43:17.711Z,7.57
2023-07-29T17:44:49.392Z,8.90
2023-07-29T17:46:21.038Z,11.52
2023-07-29T17:47:52.977Z,15.70
2023-07-29T17:49:24.555Z,12.88
2023-07-29T17:50:56.284Z,10.80
2023-07-29T17:52:28.108Z,10.88
2023-07-29T17:53:59.696Z,9.82
2023-07-29T17:55:31.321Z,8.35
2023-07-29T17:57:02.977Z,8.55
2023-07-29T17:58:35.631Z,11.50
2023-07-29T18:00:08.532Z,10.93
2023-07-29T18:01:41.138Z,11.07
2023-07-29T18:03:12.911Z,10.25
2023-07-29T18:04:44.880Z,9.55
2023-07-29T18:06:17.685Z,9.57
2023-07-29T18:07:49.465Z,12.85
2023-07-29T18:09:21.407Z,9.48
2023-07-29T18:10:53.129Z,10.63
2023-07-29T18:12:24.902Z,10.18
2023-07-29T18:13:56.616Z,7.95
2023-07-29T18:15:30.748Z,8.02
2023-07-29T18:17:02.732Z,10.38
2023-07-29T18:18:34.505Z,7.65
2023-07-29T18:20:07.181Z,8.25
2023-07-29T18:21:38.876Z,10.38
2023-07-29T18:23:11.823Z,9.80
2023-07-29T18:24:43.504Z,6.95
2023-07-29T18:26:15.295Z,9.07
2023-07-29T18:27:47.372Z,8.73
2023-07-29T18:29:19.003Z,8.55
2023-07-29T18:30:50.925Z,8.85
2023-07-29T18:32:22.598Z,9.27
2023-07-29T18:33:54.327Z,8.75
2023-07-29T18:35:26.041Z,9.45
2023-07-29T18:36:57.868Z,9.57
2023-07-29T18:38:29.510Z,7.75
2023-07-29T18:40:01.327Z,9.05
2023-07-29T18:41:33.588Z,8.50
2023-07-29T18:43:06.281Z,9.70
2023-07-29T18:44:38.095Z,12.32
2023-07-29T18:46:10.171Z,7.82
2023-07-29T18:47:41.833Z,9.02
2023-07-29T18:49:16.520Z,7.10
2023-07-29T18:50:48.170Z,8.65
2023-07-29T18:52:19.805Z,10.40
2023-07-29T18:53:51.809Z,8.73
2023-07-29T18:55:23.568Z,9.05
2023-07-29T18:56:55.200Z,8.85
2023-07-29T18:58:27.132Z,8.30
2023-07-29T19:00:01.588Z,7.68
2023-07-29T19:01:33.413Z,12.43
2023-07-29T19:03:05.300Z,9.48
2023-07-29T19:04:37.280Z,8.15
2023-07-29T19:06:08.991Z,8.13
2023-07-29T19:07:41.080Z,11.45
2023-07-29T19:09:12.799Z,7.45
2023-07-29T19:10:44.409Z,8.88
2023-07-29T19:12:16.035Z,7.75
2023-07-29T19:13:47.592Z,10.30
2023-07-29T19:15:19.419Z,13.73
2023-07-29T19:16:51.636Z,10.98
2023-07-29T19:18:24.479Z,11.35
2023-07-29T19:19:56.418Z,13.48
2023-07-29T19:21:28.665Z,11.80
2023-07-29T19:23:00.725Z,11.65
2023-07-29T19:24:32.571Z,11.18
2023-07-29T19:26:04.333Z,9.95
2023-07-29T19:27:36.222Z,9.25
2023-07-29T19:29:08.024Z,12.48
2023-07-29T19:30:39.929Z,12.70
2023-07-29T19:32:11.701Z,12.52
2023-07-29T19:33:44.364Z,11.90
2023-07-29T19:35:16.229Z,12.20
2023-07-29T19:36:49.779Z,10.80
2023-07-29T19:38:21.978Z,9.00
2023-07-29T19:39:54.515Z,10.18
2023-07-29T19:41:28.347Z,8.93
2023-07-29T19:43:00.241Z,8.63
2023-07-29T19:44:34.381Z,7.85
2023-07-29T19:47:40.875Z,7.82
2023-07-29T19:49:12.846Z,7.38
2023-07-29T19:50:46.259Z,9.57
2023-07-29T19:52:19.536Z,10.02
2023-07-29T19:53:51.950Z,7.03
2023-07-29T19:55:25.433Z,8.50
2023-07-29T19:56:57.225Z,9.25
2023-07-29T19:58:29.002Z,9.50
2023-07-29T20:00:00.726Z,9.63
2023-07-29T20:01:32.542Z,11.52
2023-07-29T20:03:04.747Z,8.80
2023-07-29T20:04:36.836Z,10.93
2023-07-29T20:06:08.866Z,12.25
2023-07-29T20:07:40.741Z,9.77
2023-07-29T20:09:12.795Z,11.07
2023-07-29T20:10:47.216Z,11.77
2023-07-29T20:12:19.006Z,9.77
2023-07-29T20:13:50.748Z,11.38
2023-07-29T20:15:22.665Z,13.48
2023-07-29T20:16:54.413Z,9.77
2023-07-29T20:18:26.469Z,9.57
2023-07-29T20:19:58.424Z,11.10
2023-07-29T20:21:30.193Z,9.02
2023-07-29T20:23:01.881Z,10.27
2023-07-29T20:24:33.529Z,7.68
2023-07-29T20:26:05.321Z,11.40
2023-07-29T20:27:37.079Z,8.07
2023-07-29T20:29:08.921Z,9.10
2023-07-29T20:30:40.543Z,10.35
2023-07-29T20:32:12.402Z,8.80
2023-07-29T20:33:44.101Z,9.60
2023-07-29T20:35:16.129Z,8.25
2023-07-29T20:36:48.166Z,11.68
2023-07-29T20:38:19.953Z,7.93
2023-07-29T20:39:51.608Z,7.93
2023-07-29T20:41:24.423Z,9.82
2023-07-29T20:42:56.059Z,7.72
2023-07-29T20:44:28.640Z,8.57
2023-07-29T20:46:00.390Z,7.63
2023-07-29T20:47:32.684Z,6.78
2023-07-29T20:49:04.358Z,7.43
2023-07-29T20:50:46.177Z,8.10
2023-07-29T20:52:18.610Z,9.70
2023-07-29T20:53:50.567Z,8.90
2023-07-29T20:55:22.418Z,9.77
2023-07-29T20:56:54.160Z,8.25
2023-07-29T20:58:26.111Z,10.93
2023-07-29T20:59:58.312Z,7.78
2023-07-29T21:01:30.106Z,8.10
2023-07-29T21:03:01.965Z,9.25
2023-07-29T21:04:33.851Z,11.93
2023-07-29T21:06:05.743Z,8.32
2023-07-29T21:07:37.475Z,13.35
2023-07-29T21:09:10.079Z,9.13
2023-07-29T21:10:41.932Z,12.32
2023-07-29T21:12:15.567Z,10.23
2023-07-29T21:13:51.059Z,10.43
2023-07-29T21:15:22.756Z,9.82
2023-07-29T21:16:54.426Z,8.40
2023-07-29T21:18:26.280Z,10.07
2023-07-29T21:19:59.727Z,10.25
2023-07-29T21:21:31.507Z,8.95
2023-07-29T21:23:03.669Z,12.35
2023-07-29T21:24:36.791Z,11.85
2023-07-29T21:26:09.071Z,11.48
2023-07-29T21:27:40.731Z,10.27
2023-07-29T21:29:12.614Z,10.50
2023-07-29T21:30:45.530Z,10.07
2023-07-29T21:32:17.403Z,10.13
2023-07-29T21:33:49.097Z,15.07
2023-07-29T21:35:20.704Z,10.13
2023-07-29T21:36:52.360Z,10.45
2023-07-29T21:38:29.839Z,12.15
2023-07-29T21:40:02.147Z,11.38
2023-07-29T21:41:35.823Z,9.35
2023-07-29T21:43:07.710Z,10.95
2023-07-29T21:44:39.486Z,10.70
2023-07-29T21:46:11.237Z,8.88
2023-07-29T21:47:43.037Z,10.77
2023-07-29T21:49:14.768Z,8.73
2023-07-29T21:50:48.572Z,10.38
2023-07-29T21:52:21.904Z,10.63
2023-07-29T21:53:54.480Z,10.10
2023-07-29T21:55:26.239Z,9.93
2023-07-29T21:56:57.876Z,10.45
2023-07-29T21:58:29.578Z,8.05
2023-07-29T22:00:01.394Z,9.65
2023-07-29T22:01:33.785Z,8.15
2023-07-29T22:03:05.530Z,8.98
2023-07-29T22:04:37.440Z,10.38
2023-07-29T22:06:09.171Z,9.57
2023-07-29T22:07:41.048Z,10.32
2023-07-29T22:09:12.750Z,7.65
2023-07-29T22:10:44.516Z,9.45
2023-07-29T22:12:16.393Z,7.95
2023-07-29T22:13:48.495Z,8.85
2023-07-29T22:15:20.473Z,13.05
2023-07-29T22:16:52.388Z,10.13
2023-07-29T22:18:24.571Z,9.18
2023-07-29T22:19:56.562Z,10.68
2023-07-29T22:21:28.567Z,9.57
2023-07-29T22:23:00.708Z,9.45
2023-07-29T22:24:33.322Z,9.68
2023-07-29T22:26:05.772Z,8.25
2023-07-29T22:27:37.771Z,8.00
2023-07-29T22:29:09.692Z,10.05
2023-07-29T22:30:41.377Z,7.43
2023-07-29T22:32:13.381Z,9.15
2023-07-29T22:33:45.399Z,10.23
2023-07-29T22:35:17.124Z,9.45
2023-07-29T22:36:49.013Z,9.85
2023-07-29T22:38:20.798Z,9.57
2023-07-29T22:39:52.747Z,10.23
2023-07-29T22:41:24.934Z,10.93
2023-07-29T22:42:56.854Z,9.45
2023-07-29T22:44:28.835Z,11.32
2023-07-29T22:46:02.400Z,8.27
2023-07-29T22:47:34.463Z,9.32
2023-07-29T22:49:07.820Z,9.25
2023-07-29T22:50:39.641Z,11.25
2023-07-29T22:52:11.348Z,8.95
2023-07-29T22:53:43.342Z,9.90
2023-07-29T22:55:15.250Z,13.27
2023-07-29T22:56:47.074Z,10.45
2023-07-29T22:58:20.770Z,12.02
2023-07-29T22:59:52.603Z,10.07
2023-07-29T23:01:24.506Z,9.48
2023-07-29T23:02:56.535Z,10.18
2023-07-29T23:04:28.562Z,12.55
2023-07-29T23:06:00.439Z,10.98
2023-07-29T23:07:32.317Z,8.48
2023-07-29T23:09:04.271Z,12.55
2023-07-29T23:10:37.290Z,8.25
2023-07-29T23:12:09.526Z,10.65
2023-07-29T23:13:42.284Z,10.18
2023-07-29T23:15:14.310Z,10.48
2023-07-29T23:16:46.304Z,14.73
2023-07-29T23:18:18.160Z,10.63
2023-07-29T23:19:50.120Z,9.27
2023-07-29T23:21:21.860Z,11.05
2023-07-29T23:22:53.757Z,13.23
2023-07-29T23:24:25.485Z,10.88
2023-07-29T23:25:57.503Z,10.05
2023-07-29T23:27:29.950Z,8.93
2023-07-29T23:29:01.853Z,12.38
2023-07-29T23:30:33.621Z,9.93
2023-07-29T23:32:05.828Z,10.63
2023-07-29T23:33:37.631Z,9.77
2023-07-29T23:35:09.593Z,9.40
2023-07-29T23:36:42.138Z,8.50
2023-07-29T23:38:14.330Z,7.65
2023-07-29T23:39:46.538Z,10.85
2023-07-29T23:41:18.384Z,9.65
2023-07-29T23:42:50.294Z,13.35
2023-07-29T23:44:22.008Z,10.98
2023-07-29T23:45:53.851Z,10.27
2023-07-29T23:47:25.649Z,12.20
2023-07-29T23:48:57.709Z,8.13
2023-07-29T23:50:30.634Z,9.20
2023-07-29T23:52:02.653Z,10.90
2023-07-29T23:53:34.650Z,8.02
2023-07-29T23:55:07.315Z,9.98
2023-07-29T23:56:39.198Z,9.80
2023-07-29T23:58:11.064Z,9.98
2023-07-29T23:59:43.108Z,9.30
